Time;durP1;ratioP1;P1;durP2;ratioP2;P2;SDS_P1;SDS_P2;PMS_P1;PMS_P2;Temp;Humidity;BMP_temperature;BMP_pressure;BME280_temperature;BME280_humidity;BME280_pressure;Samples;Min_cycle;Max_cycle;Signal;HPM_P1;HPM_P2
2022/02/03 00:00:56;;;;;;;51.47;21.98;;;;;;;7.34;100.00;101881.59;5057398;28;21615;-69
2022/02/03 00:03:35;;;;;;;51.72;22.08;;;;;;;7.41;100.00;101887.97;5041856;28;20310;-70
2022/02/03 00:06:07;;;;;;;48.28;21.98;;;;;;;7.46;100.00;101873.00;5057724;28;20119;-69
2022/02/03 00:22:13;;;;;;;57.22;23.33;;;;;;;7.32;100.00;101878.31;5057301;28;20087;-69
2022/02/03 00:24:53;;;;;;;57.75;22.95;;;;;;;7.35;100.00;101880.69;5024234;28;20559;-69
2022/02/03 00:27:19;;;;;;;57.92;22.80;;;;;;;7.34;100.00;101879.84;5028469;28;20040;-69
2022/02/03 00:33:10;;;;;;;59.97;25.98;;;;;;;7.33;100.00;101877.38;5060188;28;20478;-69
2022/02/03 00:35:23;;;;;;;59.13;23.92;;;;;;;7.37;100.00;101874.47;5052832;28;20331;-70
2022/02/03 00:38:01;;;;;;;52.55;23.75;;;;;;;7.40;100.00;101871.69;5054891;28;20025;-70
2022/02/03 00:51:17;;;;;;;50.55;22.95;;;;;;;7.47;100.00;101856.56;5059598;28;20109;-70
2022/02/03 00:53:43;;;;;;;47.42;25.02;;;;;;;7.40;100.00;101850.19;5058498;28;20124;-69
2022/02/03 00:56:13;;;;;;;60.67;24.73;;;;;;;7.36;100.00;101846.19;5078041;23;20041;-79
2022/02/03 00:58:51;;;;;;;48.03;22.92;;;;;;;7.36;100.00;101848.78;5057389;28;20050;-77
2022/02/03 01:01:18;;;;;;;51.05;23.90;;;;;;;7.32;100.00;101848.16;5049630;28;20020;-79
2022/02/03 01:03:49;;;;;;;54.03;24.45;;;;;;;7.34;100.00;101842.91;5064446;28;20158;-79
2022/02/03 01:06:16;;;;;;;52.97;24.42;;;;;;;7.52;100.00;101841.59;5064932;28;20078;-77
2022/02/03 01:08:44;;;;;;;50.00;23.10;;;;;;;7.52;100.00;101839.00;5071970;28;20175;-77
2022/02/03 01:11:16;;;;;;;52.58;24.67;;;;;;;7.50;100.00;101833.13;5041586;28;20052;-77
2022/02/03 01:53:43;;;;;;;66.35;28.02;;;;;;;7.55;100.00;101818.16;5070565;28;20020;-77
2022/02/03 01:56:14;;;;;;;65.70;26.90;;;;;;;7.51;100.00;101819.28;5046927;28;20750;-77
2022/02/03 01:58:46;;;;;;;62.97;26.52;;;;;;;7.45;100.00;101817.16;5047893;28;20025;-77
2022/02/03 02:01:23;;;;;;;64.45;26.00;;;;;;;7.56;100.00;101806.88;5026703;28;20029;-77
2022/02/03 02:04:10;;;;;;;62.05;26.45;;;;;;;7.44;100.00;101812.09;5031459;28;20075;-78
2022/02/03 02:06:54;;;;;;;58.13;25.92;;;;;;;7.41;100.00;101811.38;5031465;28;20075;-77
2022/02/03 02:09:32;;;;;;;65.05;26.05;;;;;;;7.46;100.00;101811.06;5035105;28;20419;-77
2022/02/03 02:12:20;;;;;;;67.18;25.73;;;;;;;7.45;100.00;101806.00;5068626;28;20055;-77
2022/02/03 02:39:58;;;;;;;65.35;28.45;;;;;;;7.46;100.00;101771.50;5047250;28;20032;-77
2022/02/03 02:42:34;;;;;;;60.45;26.88;;;;;;;7.47;100.00;101773.97;5055260;28;20759;-77
2022/02/03 02:45:11;;;;;;;64.43;27.90;;;;;;;7.50;100.00;101776.34;5034679;28;20040;-77
2022/02/03 02:47:49;;;;;;;59.53;25.98;;;;;;;7.45;100.00;101765.53;5062541;28;20047;-77
2022/02/03 02:50:24;;;;;;;57.47;25.17;;;;;;;7.52;100.00;101768.50;5034317;28;20032;-77
2022/02/03 02:53:13;;;;;;;60.38;25.02;;;;;;;7.49;100.00;101777.28;5051205;28;20036;-77
2022/02/03 03:34:45;;;;;;;40.28;19.85;;;;;;;7.21;100.00;101742.31;5065495;28;20028;-76
2022/02/03 03:37:16;;;;;;;37.28;19.30;;;;;;;7.15;100.00;101735.84;5059153;28;20543;-77
2022/02/03 03:39:48;;;;;;;41.33;19.52;;;;;;;7.25;100.00;101735.19;5028512;28;20385;-77
2022/02/03 03:42:18;;;;;;;35.78;18.40;;;;;;;7.32;100.00;101726.91;5045051;28;20040;-77
2022/02/03 03:44:47;;;;;;;37.78;17.88;;;;;;;7.24;100.00;101724.06;5064428;28;20142;-77
2022/02/03 03:47:20;;;;;;;37.53;18.00;;;;;;;7.23;100.00;101714.66;5040918;28;20527;-76
2022/02/03 03:49:49;;;;;;;31.95;16.73;;;;;;;7.14;100.00;101707.59;5053890;28;20043;-77
2022/02/03 03:52:22;;;;;;;29.58;15.30;;;;;;;7.22;100.00;101700.94;5049218;28;20044;-76
2022/02/03 03:54:58;;;;;;;;;;;;;;;7.16;100.00;101703.97;5030013;28;20422;-77
2022/02/03 04:00:33;;;;;;;29.35;15.02;;;;;;;7.05;100.00;101693.63;5050135;28;20036;-76
2022/02/03 04:33:46;;;;;;;54.92;25.17;;;;;;;7.00;100.00;101662.19;5070689;28;20040;-76
2022/02/03 04:45:16;;;;;;;29.13;13.90;;;;;;;7.02;98.87;101665.47;5068778;28;20036;-78
2022/02/03 04:59:14;;;;;;;19.52;8.15;;;;;;;7.00;98.40;101644.13;5061998;28;20032;-77
2022/02/03 05:04:56;;;;;;;14.18;7.10;;;;;;;7.10;98.80;101637.38;5067744;28;20040;-76
2022/02/03 05:10:44;;;;;;;17.27;9.02;;;;;;;7.09;98.14;101634.91;5071588;28;20067;-77
2022/02/03 05:17:08;;;;;;;14.18;7.07;;;;;;;6.95;99.19;101636.75;5044324;28;20025;-76
2022/02/03 05:32:18;;;;;;;19.02;7.30;;;;;;;6.99;98.46;101630.41;5070065;28;20059;-77
2022/02/03 05:35:20;;;;;;;14.35;6.78;;;;;;;6.89;98.87;101628.63;5066581;28;20443;-77
2022/02/03 05:44:42;;;;;;;11.88;6.72;;;;;;;6.74;100.00;101615.91;5068956;28;20399;-77
2022/02/03 05:52:32;;;;;;;15.45;7.22;;;;;;;6.67;100.00;101611.28;5068890;28;20299;-77
2022/02/03 06:05:54;;;;;;;17.35;7.50;;;;;;;6.77;100.00;101607.94;5067599;28;20036;-76
2022/02/03 06:08:51;;;;;;;19.50;7.70;;;;;;;6.82;100.00;101602.47;5034528;28;20033;-77
2022/02/03 06:14:13;;;;;;;22.08;9.65;;;;;;;6.72;100.00;101610.03;5055995;28;20047;-77
2022/02/03 06:16:57;;;;;;;18.52;8.80;;;;;;;6.78;100.00;101604.44;5048934;28;20048;-77
2022/02/03 06:22:24;;;;;;;18.10;8.75;;;;;;;6.66;100.00;101584.69;5052214;28;20103;-77
2022/02/03 06:29:55;;;;;;;23.98;10.63;;;;;;;6.75;100.00;101585.81;5053254;28;20029;-76
2022/02/03 06:32:21;;;;;;;19.08;9.90;;;;;;;6.72;100.00;101581.66;5044815;28;20103;-76
2022/02/03 06:34:47;;;;;;;30.23;11.80;;;;;;;6.65;100.00;101588.22;5049537;28;20124;-77
2022/02/03 06:37:13;;;;;;;20.08;11.85;;;;;;;6.75;100.00;101573.72;5037429;28;20032;-76
2022/02/03 06:39:39;;;;;;;25.00;11.05;;;;;;;6.77;100.00;101576.19;5052384;28;20053;-77
2022/02/03 06:42:07;;;;;;;24.67;11.13;;;;;;;6.66;100.00;101579.53;5035251;28;20037;-77
2022/02/03 06:44:40;;;;;;;20.08;11.77;;;;;;;6.62;100.00;101583.28;5068684;28;20047;-76
2022/02/03 06:47:18;;;;;;;28.52;11.65;;;;;;;6.61;100.00;101571.31;5026683;28;20028;-77
2022/02/03 06:52:27;;;;;;;22.98;11.93;;;;;;;6.48;100.00;101567.97;5065046;28;20029;-77
2022/02/03 06:55:05;;;;;;;25.33;12.38;;;;;;;6.55;100.00;101572.59;5051125;28;20036;-77
2022/02/03 06:57:40;;;;;;;23.65;11.88;;;;;;;6.50;100.00;101563.53;5052604;28;20043;-77
2022/02/03 07:00:15;;;;;;;25.73;13.18;;;;;;;6.47;100.00;101563.78;5067380;28;20114;-77
2022/02/03 07:02:43;;;;;;;23.95;12.85;;;;;;;6.44;100.00;101551.94;5045699;28;20107;-77
2022/02/03 07:05:09;;;;;;;29.35;13.25;;;;;;;6.49;100.00;101552.44;5035688;28;20024;-77
2022/02/03 07:07:39;;;;;;;23.95;12.52;;;;;;;6.53;100.00;101558.19;5066803;28;20605;-78
2022/02/03 07:10:06;;;;;;;28.63;13.77;;;;;;;6.57;100.00;101564.75;5050359;28;20025;-77
2022/02/03 07:12:32;;;;;;;28.27;14.60;;;;;;;6.63;100.00;101557.41;5064781;28;20032;-78
2022/02/03 07:15:00;;;;;;;24.60;12.63;;;;;;;6.66;100.00;101555.53;5066201;28;20029;-76
2022/02/03 07:17:25;;;;;;;28.20;14.18;;;;;;;6.62;100.00;101558.31;5051954;28;20147;-77
2022/02/03 07:19:54;;;;;;;29.60;13.68;;;;;;;6.61;100.00;101555.84;5039824;28;20028;-77
2022/02/03 07:22:19;;;;;;;27.90;14.50;;;;;;;6.55;100.00;101533.13;5055598;28;20097;-75
2022/02/03 07:24:45;;;;;;;29.75;13.43;;;;;;;6.53;100.00;101535.00;5048618;28;20036;-77
2022/02/03 07:27:11;;;;;;;26.02;13.55;;;;;;;6.52;100.00;101528.22;5032631;28;20032;-77
2022/02/03 07:29:36;;;;;;;27.95;13.85;;;;;;;6.59;100.00;101514.75;5053794;28;20036;-77
2022/02/03 07:32:02;;;;;;;27.70;13.52;;;;;;;6.54;100.00;101526.34;5052250;28;20067;-76
2022/02/03 07:34:29;;;;;;;29.13;13.30;;;;;;;6.63;100.00;101528.25;5048867;28;20140;-77
2022/02/03 07:36:54;;;;;;;28.92;13.45;;;;;;;6.60;100.00;101531.84;5047419;28;20032;-77
2022/02/03 07:39:20;;;;;;;29.02;13.63;;;;;;;6.62;100.00;101529.16;5048484;28;20032;-77
2022/02/03 07:41:45;;;;;;;34.53;13.88;;;;;;;6.63;100.00;101523.91;5067451;28;20504;-77
2022/02/03 07:44:14;;;;;;;26.25;12.65;;;;;;;6.58;100.00;101522.59;5036012;28;20032;-80
2022/02/03 07:46:40;;;;;;;26.63;12.60;;;;;;;6.58;100.00;101527.75;5057557;28;20028;-78
2022/02/03 07:49:06;;;;;;;24.30;11.43;;;;;;;6.58;100.00;101530.31;5052595;28;20127;-78
2022/02/03 07:51:31;;;;;;;22.92;11.57;;;;;;;6.62;100.00;101537.72;5048993;28;20180;-78
2022/02/03 07:53:57;;;;;;;24.58;12.35;;;;;;;6.71;100.00;101543.16;5044226;28;20037;-78
2022/02/03 07:56:22;;;;;;;26.70;11.18;;;;;;;6.70;100.00;101539.72;5031994;28;20032;-78
2022/02/03 07:58:48;;;;;;;26.73;11.05;;;;;;;6.73;100.00;101541.28;5065442;28;20032;-79
2022/02/03 08:01:14;;;;;;;21.77;11.13;;;;;;;6.68;100.00;101528.72;5066081;28;20025;-77
2022/02/03 08:03:42;;;;;;;22.67;10.65;;;;;;;6.80;100.00;101514.13;5049451;28;20032;-78
2022/02/03 08:06:13;;;;;;;23.38;12.07;;;;;;;6.64;99.82;101501.53;5050656;28;20031;-78
2022/02/03 08:08:43;;;;;;;20.40;10.77;;;;;;;6.67;100.00;101493.56;5051539;28;20398;-77
2022/02/03 08:11:14;;;;;;;24.20;11.38;;;;;;;6.76;99.75;101484.31;5059859;28;20040;-78
2022/02/03 08:13:55;;;;;;;26.05;12.13;;;;;;;6.68;99.76;101484.88;5053812;28;20043;-80
2022/02/03 08:16:32;;;;;;;25.38;13.32;;;;;;;6.67;99.79;101479.84;5052180;28;20043;-80
2022/02/03 08:19:07;;;;;;;23.52;12.48;;;;;;;6.63;99.80;101471.53;5051697;28;20029;-80
2022/02/03 08:21:36;;;;;;;27.77;12.63;;;;;;;6.74;99.19;101473.31;5052148;28;20037;-79
2022/02/03 08:24:16;;;;;;;23.77;12.77;;;;;;;6.59;99.90;101472.69;5052642;28;20051;-77
2022/02/03 08:30:06;;;;;;;29.20;13.60;;;;;;;6.57;99.98;101465.09;5064722;28;20040;-80
2022/02/03 08:32:16;;;;;;;32.25;12.77;;;;;;;6.68;100.00;101459.13;5063896;28;20048;-79
2022/02/03 08:37:10;;;;;;;26.20;13.45;;;;;;;6.54;100.00;101456.75;5045963;28;20040;-77
2022/02/03 08:39:49;;;;;;;29.52;13.30;;;;;;;6.67;100.00;101464.38;5029010;28;20036;-78
2022/02/03 08:42:14;;;;;;;28.05;14.98;;;;;;;6.65;100.00;101469.69;5029381;28;20037;-78
2022/02/03 08:44:40;;;;;;;31.20;13.93;;;;;;;6.58;100.00;101463.31;5029383;28;20040;-78
2022/02/03 08:47:05;;;;;;;28.83;13.73;;;;;;;6.56;100.00;101454.91;5033755;28;20048;-78
2022/02/03 08:49:31;;;;;;;25.77;14.82;;;;;;;6.54;100.00;101461.91;5037017;28;20137;-78
2022/02/03 08:52:04;;;;;;;29.95;14.73;;;;;;;6.56;100.00;101462.63;5047026;28;20036;-77
2022/02/03 08:54:33;;;;;;;32.63;14.32;;;;;;;6.61;100.00;101460.50;5031863;28;20388;-77
2022/02/03 08:57:07;;;;;;;29.77;15.23;;;;;;;6.57;100.00;101466.81;5037355;28;20037;-78
2022/02/03 09:36:27;;;;;;;21.48;10.63;;;;;;;6.66;95.14;101447.28;5051625;28;20025;-78
2022/02/03 10:02:20;;;;;;;19.17;9.68;;;;;;;6.89;92.01;101420.59;5053522;28;20056;-77
2022/02/03 10:07:21;;;;;;;17.10;9.50;;;;;;;6.75;91.51;101401.03;5063053;28;20037;-77
2022/02/03 10:09:52;;;;;;;;;;;;;;;6.70;91.38;101405.69;5036530;28;20118;-77
2022/02/03 10:12:27;;;;;;;15.15;8.40;;;;;;;6.85;90.00;101405.47;5059030;28;20297;-77
2022/02/03 10:14:55;;;;;;;14.25;8.07;;;;;;;6.77;89.77;101401.72;5027025;28;20613;-79
2022/02/03 10:17:45;;;;;;;12.20;7.75;;;;;;;6.85;89.89;101413.22;5034062;28;20060;-77
2022/02/03 10:20:14;;;;;;;13.13;8.10;;;;;;;6.79;88.75;101417.91;5048804;28;20036;-79
2022/02/03 10:23:03;;;;;;;11.05;6.80;;;;;;;6.80;88.67;101416.97;5049146;28;20071;-78
2022/02/03 10:25:33;;;;;;;10.68;7.00;;;;;;;6.82;88.01;101427.16;5071297;28;20044;-79
2022/02/03 10:28:08;;;;;;;11.40;5.57;;;;;;;6.78;87.55;101433.47;5065251;28;20335;-79
2022/02/03 10:30:56;;;;;;;7.93;4.50;;;;;;;6.81;86.57;101431.47;5067677;28;20033;-79
2022/02/03 10:33:38;;;;;;;10.38;4.65;;;;;;;6.70;86.48;101439.19;5062632;28;20029;-79
2022/02/03 10:36:23;;;;;;;9.05;4.72;;;;;;;6.86;85.93;101443.22;5053727;28;20047;-78
2022/02/03 10:42:16;;;;;;;8.60;4.32;;;;;;;6.55;87.09;101428.28;5011043;28;20764;-80
2022/02/03 10:47:41;;;;;;;8.15;3.80;;;;;;;6.74;86.03;101407.13;5032383;28;20044;-77
2022/02/03 10:50:39;;;;;;;11.20;3.97;;;;;;;6.61;86.39;101399.50;5045351;28;20040;-77
2022/02/03 11:01:18;;;;;;;10.80;4.35;;;;;;;6.62;85.74;101408.84;5050052;28;20155;-79
2022/02/03 11:04:27;;;;;;;8.23;4.13;;;;;;;6.67;85.66;101392.22;5031554;28;20092;-79
2022/02/03 11:07:11;;;;;;;10.13;3.70;;;;;;;6.69;85.36;101392.94;5050382;28;20052;-79
2022/02/03 11:09:49;;;;;;;7.55;3.40;;;;;;;6.70;84.97;101387.66;5047779;28;20032;-79
2022/02/03 11:12:21;;;;;;;7.65;3.42;;;;;;;6.63;86.10;101387.31;5064230;28;20071;-76
2022/02/03 11:14:47;;;;;;;7.85;3.75;;;;;;;6.65;85.41;101376.06;5064759;28;20033;-77
2022/02/03 11:17:17;;;;;;;6.65;4.43;;;;;;;6.71;85.56;101371.28;5034484;28;20067;-78
2022/02/03 11:19:48;;;;;;;6.35;3.72;;;;;;;6.65;84.87;101373.47;5031371;28;20032;-80
2022/02/03 11:22:19;;;;;;;10.88;3.95;;;;;;;6.67;85.59;101374.19;5051082;28;20332;-80
2022/02/03 11:24:51;;;;;;;6.35;3.67;;;;;;;6.57;86.34;101361.16;5046745;28;20032;-78
2022/02/03 11:44:18;;;;;;;9.82;3.45;;;;;;;6.54;87.05;101351.94;5049832;28;20108;-77
2022/02/03 12:05:55;;;;;;;10.68;4.65;;;;;;;6.61;86.88;101335.06;5065715;28;20056;-79
2022/02/03 12:11:26;;;;;;;12.02;4.43;;;;;;;6.52;86.06;101327.22;5067259;28;20090;-80
2022/02/03 12:22:03;;;;;;;9.68;4.93;;;;;;;6.59;85.47;101307.75;5066783;28;19951;-80
2022/02/03 12:24:46;;;;;;;12.32;5.25;;;;;;;6.73;85.29;101302.38;5042702;28;20025;-79
2022/02/03 12:29:54;;;;;;;10.00;5.90;;;;;;;6.45;85.79;101290.78;5059408;28;19916;-79
2022/02/03 12:43:01;;;;;;;11.50;5.80;;;;;;;6.55;83.85;101270.28;5046912;28;20115;-79
2022/02/03 12:45:27;;;;;;;11.07;5.53;;;;;;;6.65;84.19;101260.91;5033744;28;20036;-79
2022/02/03 12:47:58;;;;;;;13.57;6.57;;;;;;;6.60;84.18;101253.53;5036617;28;20072;-79
2022/02/03 12:50:36;;;;;;;12.63;5.88;;;;;;;6.63;83.79;101243.00;5039065;28;20032;-79
2022/02/03 12:53:03;;;;;;;12.82;5.70;;;;;;;6.58;84.07;101236.56;5055866;28;20032;-78
2022/02/03 12:55:35;;;;;;;15.38;5.28;;;;;;;6.62;84.09;101237.97;5054556;28;20043;-79
2022/02/03 12:58:04;;;;;;;;;;;;;;;6.55;83.96;101232.44;5061184;28;20143;-79
2022/02/03 13:00:42;;;;;;;12.13;6.22;;;;;;;6.63;83.53;101248.16;5050086;28;19984;-80
2022/02/03 13:03:10;;;;;;;9.98;5.85;;;;;;;6.49;83.48;101250.16;5046660;28;20047;-79
2022/02/03 13:05:38;;;;;;;12.07;5.75;;;;;;;6.55;84.11;101247.09;5040967;28;20361;-79
2022/02/03 13:08:06;;;;;;;14.55;5.93;;;;;;;6.52;83.95;101243.00;5052216;28;20044;-79
2022/02/03 13:10:35;;;;;;;13.82;6.10;;;;;;;6.47;84.69;101244.31;5057409;28;20047;-79
2022/02/03 13:13:38;;;;;;;15.80;5.88;;;;;;;6.49;85.12;101242.44;5074834;28;20040;-79
2022/02/03 13:16:10;;;;;;;9.18;5.45;;;;;;;6.43;85.14;101243.72;5047862;28;20324;-80
2022/02/03 13:18:44;;;;;;;12.27;5.50;;;;;;;6.49;84.93;101242.44;5047816;28;20119;-80
2022/02/03 13:21:31;;;;;;;12.18;6.03;;;;;;;6.45;84.84;101241.84;5059836;28;20406;-79
2022/02/03 13:26:48;;;;;;;13.82;6.15;;;;;;;6.37;85.79;101250.16;5051844;28;20056;-79
2022/02/03 13:29:21;;;;;;;9.65;5.53;;;;;;;6.34;86.01;101239.28;5049155;28;20461;-79
2022/02/03 13:31:55;;;;;;;13.48;5.80;;;;;;;6.27;86.89;101227.78;5051796;28;20060;-79
2022/02/03 13:34:35;;;;;;;12.07;5.90;;;;;;;6.36;86.82;101247.69;5045524;28;20075;-79
2022/02/03 13:37:23;;;;;;;14.57;5.72;;;;;;;6.27;86.87;101235.50;5079051;28;20052;-80
2022/02/03 13:40:03;;;;;;;12.13;5.60;;;;;;;6.27;86.96;101230.38;5059683;28;20036;-79
2022/02/03 13:42:32;;;;;;;17.45;5.55;;;;;;;6.26;87.22;101224.41;5041066;28;20063;-80
2022/02/03 13:45:09;;;;;;;18.20;6.22;;;;;;;6.20;87.38;101223.13;5033461;28;20094;-78
2022/02/03 13:47:36;;;;;;;14.75;5.68;;;;;;;6.14;87.69;101222.75;5056519;28;20037;-79
2022/02/03 13:50:03;;;;;;;11.63;6.22;;;;;;;6.21;87.18;101229.06;5038275;28;20054;-79
2022/02/03 13:52:34;;;;;;;12.13;6.03;;;;;;;6.12;87.48;101238.34;5051422;28;20552;-79
2022/02/03 14:28:04;;;;;;;14.52;7.10;;;;;;;6.42;87.15;101175.94;5030896;28;20617;-79
2022/02/03 14:30:29;;;;;;;12.93;6.22;;;;;;;6.50;86.08;101167.59;5066081;28;20467;-79
2022/02/03 14:32:58;;;;;;;12.20;6.70;;;;;;;6.57;85.86;101173.06;5032968;28;20034;-79
2022/02/03 14:35:24;;;;;;;20.95;7.22;;;;;;;6.61;84.94;101167.56;5066398;28;20044;-79
2022/02/03 14:41:00;;;;;;;12.00;6.57;;;;;;;6.65;85.21;101163.00;5038907;28;20106;-79
2022/02/03 14:43:25;;;;;;;15.15;7.43;;;;;;;6.68;84.49;101152.41;5041156;28;20063;-79
2022/02/03 14:45:52;;;;;;;11.60;7.10;;;;;;;6.52;85.50;101139.94;5035969;28;20039;-79
2022/02/03 14:48:18;;;;;;;14.57;6.88;;;;;;;6.57;85.11;101130.09;5034591;28;20028;-80
2022/02/03 14:50:44;;;;;;;15.27;7.10;;;;;;;6.60;84.82;101144.50;5051174;28;20029;-79
2022/02/03 14:53:17;;;;;;;15.70;6.63;;;;;;;6.60;84.88;101141.91;5035677;28;20565;-79
2022/02/03 14:58:29;;;;;;;14.73;6.50;;;;;;;6.62;84.83;101138.25;5067926;28;20036;-79
2022/02/03 15:00:58;;;;;;;12.07;6.38;;;;;;;6.66;84.65;101151.72;5036492;28;20071;-79
2022/02/03 15:03:25;;;;;;;13.60;5.93;;;;;;;6.62;84.09;101150.34;5031913;28;20029;-79
2022/02/03 15:05:55;;;;;;;13.13;6.38;;;;;;;6.55;84.36;101147.41;5045726;28;20064;-79
2022/02/03 15:08:32;;;;;;;14.43;6.45;;;;;;;6.52;84.99;101149.44;5045900;28;20037;-79
2022/02/03 15:11:25;;;;;;;17.10;7.28;;;;;;;6.67;84.50;101137.06;5034867;28;20125;-80
2022/02/03 15:13:51;;;;;;;14.20;6.65;;;;;;;6.55;84.59;101129.38;5062777;28;20067;-80
2022/02/03 15:16:17;;;;;;;17.30;6.80;;;;;;;6.66;84.37;101125.97;5030087;28;20517;-80
2022/02/03 15:18:42;;;;;;;17.13;7.10;;;;;;;6.62;83.88;101129.72;5040651;28;20317;-79
2022/02/03 15:21:10;;;;;;;14.95;6.88;;;;;;;6.53;84.64;101125.28;5033068;28;20035;-79
2022/02/03 15:23:36;;;;;;;15.57;6.45;;;;;;;6.66;84.84;101130.31;5029256;28;20040;-80
2022/02/03 15:26:02;;;;;;;20.88;6.30;;;;;;;6.72;84.32;101128.03;5062066;28;20041;-79
2022/02/03 15:28:28;;;;;;;14.48;6.00;;;;;;;6.61;84.66;101128.91;5050992;28;20046;-80
2022/02/03 15:30:54;;;;;;;20.23;6.50;;;;;;;6.68;84.26;101120.69;5052843;28;20037;-79
2022/02/03 15:33:25;;;;;;;14.55;6.95;;;;;;;6.56;84.62;101117.34;5049800;28;20048;-79
2022/02/03 15:35:54;;;;;;;12.10;6.75;;;;;;;6.49;84.51;101117.00;5050334;28;20036;-80
2022/02/03 15:38:21;;;;;;;16.60;6.65;;;;;;;6.46;84.38;101111.25;5049971;28;20382;-79
2022/02/03 15:40:49;;;;;;;12.98;7.22;;;;;;;6.44;85.11;101108.81;5051050;28;20047;-79
2022/02/03 15:45:51;;;;;;;18.90;7.32;;;;;;;6.48;85.21;101107.66;5064326;28;20029;-78
2022/02/03 15:48:33;;;;;;;14.52;7.32;;;;;;;6.56;85.04;101105.25;5062489;28;20037;-80
2022/02/03 16:01:50;;;;;;;16.95;7.18;;;;;;;6.47;84.97;101102.59;5064356;28;20045;-80
2022/02/03 16:17:46;;;;;;;36.45;15.07;;;;;;;6.39;85.78;101090.34;5050181;28;20037;-80
2022/02/03 16:20:23;;;;;;;22.25;8.50;;;;;;;6.34;85.57;101093.25;5048657;28;20494;-80
2022/02/03 16:42:29;;;;;;;19.48;8.32;;;;;;;6.18;86.87;101088.50;5068091;28;20040;-80
2022/02/03 16:52:45;;;;;;;21.33;10.00;;;;;;;6.21;87.20;101103.69;5059845;28;20029;-80
2022/02/03 16:55:15;;;;;;;21.90;8.45;;;;;;;6.18;87.27;101103.16;5035446;28;20464;-80
2022/02/03 16:57:40;;;;;;;21.98;9.07;;;;;;;6.29;86.57;101097.13;5057473;28;20589;-80
2022/02/03 17:00:11;;;;;;;18.17;8.40;;;;;;;6.09;87.74;101094.38;5055667;28;20028;-80
2022/02/03 17:02:37;;;;;;;17.58;8.43;;;;;;;6.09;87.88;101096.94;5053696;28;20066;-79
2022/02/03 17:05:03;;;;;;;16.85;8.75;;;;;;;6.04;88.28;101109.34;5040756;28;20530;-81
2022/02/03 17:07:29;;;;;;;17.40;8.63;;;;;;;6.06;88.42;101104.91;5061528;28;20043;-80
2022/02/03 17:09:56;;;;;;;18.02;7.63;;;;;;;6.16;88.26;101102.41;5056128;28;20040;-79
2022/02/03 17:12:22;;;;;;;19.55;9.02;;;;;;;6.17;87.63;101102.31;5071386;28;20538;-80
2022/02/03 17:14:48;;;;;;;16.73;8.15;;;;;;;6.11;88.29;101095.06;5045906;28;20036;-79
2022/02/03 17:17:19;;;;;;;15.80;8.93;;;;;;;6.06;88.18;101096.38;5062142;28;20487;-80
2022/02/03 17:19:45;;;;;;;22.58;8.25;;;;;;;5.99;88.56;101096.00;5059955;28;20104;-79
2022/02/03 17:22:13;;;;;;;22.42;9.07;;;;;;;6.11;88.03;101099.41;5060686;28;20609;-79
2022/02/03 17:24:45;;;;;;;18.60;7.97;;;;;;;6.13;88.15;101102.69;5055298;28;20028;-79
2022/02/03 17:27:21;;;;;;;19.17;9.80;;;;;;;6.07;88.40;101100.59;5059542;28;20036;-79
2022/02/03 17:30:04;;;;;;;21.90;8.82;;;;;;;6.08;88.40;101103.03;5062532;28;20500;-79
2022/02/03 18:32:34;;;;;;;33.22;15.02;;;;;;;5.95;89.76;101104.88;5047554;28;20029;-79
2022/02/03 18:35:10;;;;;;;25.75;13.60;;;;;;;6.01;89.53;101110.41;5061113;28;20029;-80
2022/02/03 18:54:04;;;;;;;32.35;15.32;;;;;;;5.98;90.58;101104.69;5065817;28;20100;-78
2022/02/03 20:05:19;;;;;;;45.30;18.48;;;;;;;5.61;98.07;101089.44;5008380;28;20382;-77
2022/02/03 20:08:20;;;;;;;33.45;18.33;;;;;;;5.53;98.65;101092.59;5071618;28;20040;-78
2022/02/03 20:10:37;;;;;;;39.80;19.38;;;;;;;5.54;98.82;101101.97;5042148;28;20041;-77
2022/02/03 20:13:03;;;;;;;34.97;19.25;;;;;;;5.66;98.19;101105.34;5049743;28;20110;-78
2022/02/03 20:15:28;;;;;;;35.92;18.65;;;;;;;5.58;98.50;101100.00;5042733;28;20055;-78
2022/02/03 20:17:55;;;;;;;46.00;20.38;;;;;;;5.70;98.25;101085.38;5032222;28;20436;-78
2022/02/03 20:20:21;;;;;;;43.08;19.73;;;;;;;5.64;98.28;101095.19;5048122;28;20399;-78
2022/02/03 20:22:48;;;;;;;37.75;19.58;;;;;;;5.69;97.97;101099.16;5049383;28;20044;-78
2022/02/03 20:25:13;;;;;;;38.75;19.60;;;;;;;5.64;98.18;101100.31;5043828;28;20454;-78
2022/02/03 20:27:39;;;;;;;47.67;20.55;;;;;;;5.68;98.05;101093.19;5030399;28;20048;-78
2022/02/03 20:30:07;;;;;;;38.80;20.65;;;;;;;5.73;97.53;101091.09;5048533;28;20063;-78
2022/02/03 20:32:33;;;;;;;40.67;19.30;;;;;;;5.76;97.68;101090.84;5038623;28;20064;-77
2022/02/03 20:35:00;;;;;;;38.55;20.08;;;;;;;5.67;97.90;101096.72;5057287;28;20040;-78
2022/02/03 20:37:26;;;;;;;40.30;19.70;;;;;;;5.70;97.74;101098.22;5048192;28;20074;-78
2022/02/03 20:39:52;;;;;;;42.45;18.95;;;;;;;5.60;98.15;101101.50;5059556;28;20029;-78
2022/02/03 20:42:17;;;;;;;39.53;19.95;;;;;;;5.63;98.23;101096.13;5068736;28;20043;-78
2022/02/03 20:44:44;;;;;;;40.15;20.40;;;;;;;5.78;98.58;101096.72;5049657;28;20036;-78
2022/02/03 20:47:10;;;;;;;36.22;20.00;;;;;;;5.64;98.58;101095.19;5027497;28;20475;-77
2022/02/03 20:49:35;;;;;;;38.35;19.45;;;;;;;5.67;98.40;101086.44;5032991;28;20036;-78
2022/02/03 20:52:01;;;;;;;39.00;19.35;;;;;;;5.71;98.71;101087.81;5051311;28;20024;-78
2022/02/03 20:54:27;;;;;;;44.05;20.08;;;;;;;5.71;98.38;101084.41;5067008;28;20044;-78
2022/02/03 20:56:52;;;;;;;40.53;19.80;;;;;;;5.72;98.51;101079.16;5044500;28;20095;-78
2022/02/03 20:59:25;;;;;;;38.03;19.17;;;;;;;5.65;98.73;101083.97;5044853;28;20033;-77
2022/02/03 21:01:53;;;;;;;38.83;20.30;;;;;;;5.68;98.86;101079.53;5049615;28;20047;-78
2022/02/03 21:04:31;;;;;;;36.97;18.38;;;;;;;5.70;98.91;101072.50;5056346;28;20044;-78
2022/02/03 21:06:56;;;;;;;38.63;19.85;;;;;;;5.72;99.02;101073.19;5049736;28;20037;-78
2022/02/03 21:09:22;;;;;;;39.47;19.35;;;;;;;5.59;99.25;101071.53;5048841;28;20426;-78
2022/02/03 21:11:47;;;;;;;38.75;19.98;;;;;;;5.63;99.32;101074.72;5039280;28;20066;-78
2022/02/03 21:14:13;;;;;;;43.85;20.63;;;;;;;5.61;99.33;101080.00;5052829;28;20029;-78
2022/02/03 21:16:40;;;;;;;34.72;19.23;;;;;;;5.66;99.27;101075.28;5054700;28;20040;-78
2022/02/03 21:19:05;;;;;;;34.50;18.73;;;;;;;5.63;99.55;101070.41;5034789;28;20024;-77
2022/02/03 21:21:31;;;;;;;37.45;18.63;;;;;;;5.59;99.38;101068.16;5049758;28;20198;-77
2022/02/03 21:23:56;;;;;;;37.03;18.50;;;;;;;5.58;99.38;101069.94;5035774;28;20499;-79
2022/02/03 21:26:31;;;;;;;40.40;20.67;;;;;;;5.62;99.47;101076.47;5031236;28;20037;-77
2022/02/03 21:28:57;;;;;;;36.92;19.13;;;;;;;5.64;99.49;101074.59;5033500;28;20132;-78
2022/02/03 21:31:22;;;;;;;37.92;18.48;;;;;;;5.63;99.49;101077.28;5068587;28;20585;-78
2022/02/03 21:33:53;;;;;;;37.85;19.75;;;;;;;5.61;99.21;101079.16;5052437;28;20062;-78
2022/02/03 21:36:20;;;;;;;31.08;17.15;;;;;;;5.62;99.44;101073.91;5035273;28;20032;-77
2022/02/03 21:38:46;;;;;;;43.90;20.27;;;;;;;5.58;99.29;101059.63;5032032;28;20471;-77
2022/02/03 21:41:13;;;;;;;37.53;18.48;;;;;;;5.66;99.27;101067.56;5049584;28;20258;-77
2022/02/03 21:43:39;;;;;;;35.55;19.83;;;;;;;5.61;99.43;101064.56;5048482;28;20037;-77
2022/02/03 21:46:04;;;;;;;37.05;20.55;;;;;;;5.62;99.49;101073.09;5038956;28;20037;-78
2022/02/03 21:48:30;;;;;;;38.00;19.38;;;;;;;5.62;99.29;101073.91;5058824;28;20032;-78
2022/02/03 21:50:59;;;;;;;35.15;19.92;;;;;;;5.68;99.29;101080.31;5040107;28;20047;-77
2022/02/03 21:53:29;;;;;;;39.95;21.13;;;;;;;5.62;99.74;101073.91;5050643;28;20367;-78
2022/02/03 21:55:56;;;;;;;37.40;19.90;;;;;;;5.71;99.37;101072.38;5047109;28;20111;-77
2022/02/03 21:58:25;;;;;;;36.28;20.20;;;;;;;5.71;99.68;101069.81;5033872;28;20035;-78
2022/02/03 22:00:52;;;;;;;35.55;19.70;;;;;;;5.71;99.29;101069.81;5067724;28;20040;-78
2022/02/03 22:03:17;;;;;;;38.58;19.33;;;;;;;5.76;99.62;101061.72;5052093;28;20036;-78
2022/02/03 22:05:43;;;;;;;39.95;19.02;;;;;;;5.71;99.67;101068.97;5043432;28;20038;-78